Clipper Mills, California
Current Conditions -  °F | °C
As of 2:20 PM on Thursday 23 Oct 2014 (Local Time) from KGOO Reporting Station
Few Clouds Few Clouds  
Wind Chill: 63°   Ceiling: Unl
Heat Index: 63°   Visibility: 10mi
Dew Point: 41°   Wind: 0mph
Humidity: 45%   Direction: NA
Pressure: 30.1"   Gusts: NA
Location:  39.53°N, 121.16°W
Report Text: KGOO 232120Z AUTO 00000KT 10SM FEW043 FEW110 17/05 A3010 RMK AO1
Loading
Personal Weather Stations






























Interactive Weather Map
Tropical Storm Tracking
New forecast layout! Learn more

10-Day Weather Forecast

Advertisements
Track Severe Weather on mobile